sensor_id;sensor_type;location;lat;lon;timestamp;P1;durP1;ratioP1;P2;durP2;ratioP2
21519;SDS011;10921;53.614;9.882;2023-02-28T00:00:51;12.15;;;10.95;;
21519;SDS011;10921;53.614;9.882;2023-02-28T00:03:18;12.73;;;10.98;;
21519;SDS011;10921;53.614;9.882;2023-02-28T00:05:44;12.45;;;11.18;;
21519;SDS011;10921;53.614;9.882;2023-02-28T00:08:11;19.63;;;12.05;;
21519;SDS011;10921;53.614;9.882;2023-02-28T00:10:39;16.60;;;13.45;;
21519;SDS011;10921;53.614;9.882;2023-02-28T00:13:06;17.70;;;13.35;;
21519;SDS011;10921;53.614;9.882;2023-02-28T00:15:33;21.00;;;13.48;;
21519;SDS011;10921;53.614;9.882;2023-02-28T00:17:59;16.83;;;12.38;;
21519;SDS011;10921;53.614;9.882;2023-02-28T00:20:26;19.10;;;13.35;;
21519;SDS011;10921;53.614;9.882;2023-02-28T00:22:53;16.27;;;12.02;;
21519;SDS011;10921;53.614;9.882;2023-02-28T00:25:21;20.85;;;13.18;;
21519;SDS011;10921;53.614;9.882;2023-02-28T00:27:49;20.40;;;13.93;;
21519;SDS011;10921;53.614;9.882;2023-02-28T00:30:17;23.85;;;14.85;;
21519;SDS011;10921;53.614;9.882;2023-02-28T00:32:45;23.73;;;16.08;;
21519;SDS011;10921;53.614;9.882;2023-02-28T00:35:11;22.83;;;15.48;;
21519;SDS011;10921;53.614;9.882;2023-02-28T00:37:38;19.42;;;14.25;;
21519;SDS011;10921;53.614;9.882;2023-02-28T00:40:05;16.20;;;11.85;;
21519;SDS011;10921;53.614;9.882;2023-02-28T00:42:35;14.75;;;11.57;;
21519;SDS011;10921;53.614;9.882;2023-02-28T00:45:02;13.13;;;11.20;;
21519;SDS011;10921;53.614;9.882;2023-02-28T00:47:34;12.75;;;10.95;;
21519;SDS011;10921;53.614;9.882;2023-02-28T00:50:01;16.08;;;11.30;;
21519;SDS011;10921;53.614;9.882;2023-02-28T00:52:28;12.35;;;11.07;;
21519;SDS011;10921;53.614;9.882;2023-02-28T00:54:54;13.95;;;10.98;;
21519;SDS011;10921;53.614;9.882;2023-02-28T00:57:21;12.13;;;10.35;;
21519;SDS011;10921;53.614;9.882;2023-02-28T00:59:48;11.70;;;10.50;;
21519;SDS011;10921;53.614;9.882;2023-02-28T01:02:14;12.00;;;10.27;;
21519;SDS011;10921;53.614;9.882;2023-02-28T01:04:41;14.07;;;10.23;;
21519;SDS011;10921;53.614;9.882;2023-02-28T01:07:08;15.20;;;10.50;;
21519;SDS011;10921;53.614;9.882;2023-02-28T01:09:35;13.52;;;10.75;;
21519;SDS011;10921;53.614;9.882;2023-02-28T01:12:01;11.15;;;10.07;;
21519;SDS011;10921;53.614;9.882;2023-02-28T01:14:28;12.15;;;10.63;;
21519;SDS011;10921;53.614;9.882;2023-02-28T01:16:54;11.98;;;10.75;;
21519;SDS011;10921;53.614;9.882;2023-02-28T01:19:21;12.07;;;10.95;;
21519;SDS011;10921;53.614;9.882;2023-02-28T01:21:47;11.93;;;10.68;;
21519;SDS011;10921;53.614;9.882;2023-02-28T01:24:14;11.63;;;10.63;;
21519;SDS011;10921;53.614;9.882;2023-02-28T01:26:40;12.02;;;10.30;;
21519;SDS011;10921;53.614;9.882;2023-02-28T01:29:07;13.45;;;10.13;;
21519;SDS011;10921;53.614;9.882;2023-02-28T01:31:34;11.18;;;10.05;;
21519;SDS011;10921;53.614;9.882;2023-02-28T01:34:00;12.10;;;10.75;;
21519;SDS011;10921;53.614;9.882;2023-02-28T01:36:27;12.05;;;10.80;;
21519;SDS011;10921;53.614;9.882;2023-02-28T01:38:54;14.50;;;10.68;;
21519;SDS011;10921;53.614;9.882;2023-02-28T01:41:21;11.88;;;10.68;;
21519;SDS011;10921;53.614;9.882;2023-02-28T01:46:33;12.30;;;11.02;;
21519;SDS011;10921;53.614;9.882;2023-02-28T01:49:14;15.02;;;10.68;;
21519;SDS011;10921;53.614;9.882;2023-02-28T01:51:45;11.88;;;10.55;;
21519;SDS011;10921;53.614;9.882;2023-02-28T01:54:18;12.05;;;10.63;;
21519;SDS011;10921;53.614;9.882;2023-02-28T01:57:10;11.52;;;10.43;;
21519;SDS011;10921;53.614;9.882;2023-02-28T01:59:43;12.50;;;11.37;;
21519;SDS011;10921;53.614;9.882;2023-02-28T02:02:16;13.95;;;11.50;;
21519;SDS011;10921;53.614;9.882;2023-02-28T02:04:46;11.93;;;10.82;;
21519;SDS011;10921;53.614;9.882;2023-02-28T02:07:19;13.60;;;11.43;;
21519;SDS011;10921;53.614;9.882;2023-02-28T02:09:46;13.38;;;10.98;;
21519;SDS011;10921;53.614;9.882;2023-02-28T02:17:44;14.73;;;11.20;;
21519;SDS011;10921;53.614;9.882;2023-02-28T02:20:16;13.95;;;10.50;;
21519;SDS011;10921;53.614;9.882;2023-02-28T02:25:59;14.18;;;11.27;;
21519;SDS011;10921;53.614;9.882;2023-02-28T02:42:48;12.57;;;11.20;;
21519;SDS011;10921;53.614;9.882;2023-02-28T02:45:28;12.23;;;11.02;;
21519;SDS011;10921;53.614;9.882;2023-02-28T02:48:03;12.57;;;10.75;;
21519;SDS011;10921;53.614;9.882;2023-02-28T02:53:09;14.82;;;10.50;;
21519;SDS011;10921;53.614;9.882;2023-02-28T02:55:39;13.63;;;11.97;;
21519;SDS011;10921;53.614;9.882;2023-02-28T02:58:10;12.10;;;11.00;;
21519;SDS011;10921;53.614;9.882;2023-02-28T03:00:41;11.73;;;10.60;;
21519;SDS011;10921;53.614;9.882;2023-02-28T03:03:12;13.68;;;11.70;;
21519;SDS011;10921;53.614;9.882;2023-02-28T03:05:50;12.45;;;10.93;;
21519;SDS011;10921;53.614;9.882;2023-02-28T03:08:17;12.77;;;11.45;;
21519;SDS011;10921;53.614;9.882;2023-02-28T03:10:44;12.27;;;11.10;;
21519;SDS011;10921;53.614;9.882;2023-02-28T03:27:10;14.52;;;12.13;;
21519;SDS011;10921;53.614;9.882;2023-02-28T03:29:43;14.35;;;12.02;;
21519;SDS011;10921;53.614;9.882;2023-02-28T03:32:19;16.25;;;13.25;;
21519;SDS011;10921;53.614;9.882;2023-02-28T03:37:40;17.55;;;12.57;;
21519;SDS011;10921;53.614;9.882;2023-02-28T03:40:14;17.73;;;13.93;;
21519;SDS011;10921;53.614;9.882;2023-02-28T03:42:51;17.48;;;13.52;;
21519;SDS011;10921;53.614;9.882;2023-02-28T03:45:25;17.27;;;12.85;;
21519;SDS011;10921;53.614;9.882;2023-02-28T03:50:44;17.42;;;13.57;;
21519;SDS011;10921;53.614;9.882;2023-02-28T03:53:15;15.88;;;12.35;;
21519;SDS011;10921;53.614;9.882;2023-02-28T03:56:03;18.67;;;12.95;;
21519;SDS011;10921;53.614;9.882;2023-02-28T03:58:55;16.20;;;13.43;;
21519;SDS011;10921;53.614;9.882;2023-02-28T04:01:32;14.23;;;12.40;;
21519;SDS011;10921;53.614;9.882;2023-02-28T04:04:02;19.02;;;13.25;;
21519;SDS011;10921;53.614;9.882;2023-02-28T04:06:30;16.17;;;13.18;;
21519;SDS011;10921;53.614;9.882;2023-02-28T04:08:58;14.65;;;13.15;;
21519;SDS011;10921;53.614;9.882;2023-02-28T04:11:36;15.25;;;13.60;;
21519;SDS011;10921;53.614;9.882;2023-02-28T04:14:04;16.92;;;12.88;;
21519;SDS011;10921;53.614;9.882;2023-02-28T04:16:34;14.73;;;12.83;;
21519;SDS011;10921;53.614;9.882;2023-02-28T04:19:03;13.80;;;12.40;;
21519;SDS011;10921;53.614;9.882;2023-02-28T04:21:38;17.00;;;13.48;;
21519;SDS011;10921;53.614;9.882;2023-02-28T04:24:07;19.35;;;13.60;;
21519;SDS011;10921;53.614;9.882;2023-02-28T04:26:40;14.38;;;13.02;;
21519;SDS011;10921;53.614;9.882;2023-02-28T04:29:10;20.02;;;13.57;;
21519;SDS011;10921;53.614;9.882;2023-02-28T04:31:38;17.10;;;12.95;;
21519;SDS011;10921;53.614;9.882;2023-02-28T04:34:05;15.65;;;13.27;;
21519;SDS011;10921;53.614;9.882;2023-02-28T04:36:32;20.33;;;14.05;;
21519;SDS011;10921;53.614;9.882;2023-02-28T04:38:58;18.80;;;13.77;;
21519;SDS011;10921;53.614;9.882;2023-02-28T04:41:25;18.08;;;14.20;;
21519;SDS011;10921;53.614;9.882;2023-02-28T04:43:56;20.13;;;14.93;;
21519;SDS011;10921;53.614;9.882;2023-02-28T04:46:23;19.27;;;13.93;;
21519;SDS011;10921;53.614;9.882;2023-02-28T04:48:50;17.15;;;13.73;;
21519;SDS011;10921;53.614;9.882;2023-02-28T04:51:17;16.10;;;14.25;;
21519;SDS011;10921;53.614;9.882;2023-02-28T04:53:44;19.77;;;13.77;;
21519;SDS011;10921;53.614;9.882;2023-02-28T04:56:13;20.83;;;14.13;;
21519;SDS011;10921;53.614;9.882;2023-02-28T04:58:42;19.17;;;14.40;;
21519;SDS011;10921;53.614;9.882;2023-02-28T05:01:22;14.82;;;13.23;;
21519;SDS011;10921;53.614;9.882;2023-02-28T05:03:54;30.30;;;16.83;;
21519;SDS011;10921;53.614;9.882;2023-02-28T05:06:23;51.70;;;21.88;;
21519;SDS011;10921;53.614;9.882;2023-02-28T05:08:51;37.72;;;19.83;;
21519;SDS011;10921;53.614;9.882;2023-02-28T05:11:20;41.45;;;19.92;;
21519;SDS011;10921;53.614;9.882;2023-02-28T05:13:47;30.83;;;18.75;;
21519;SDS011;10921;53.614;9.882;2023-02-28T05:16:14;34.28;;;16.70;;
21519;SDS011;10921;53.614;9.882;2023-02-28T05:18:41;32.42;;;17.98;;
21519;SDS011;10921;53.614;9.882;2023-02-28T05:24:05;22.67;;;16.42;;
21519;SDS011;10921;53.614;9.882;2023-02-28T05:26:34;21.98;;;17.02;;
21519;SDS011;10921;53.614;9.882;2023-02-28T05:29:02;31.15;;;17.80;;
21519;SDS011;10921;53.614;9.882;2023-02-28T05:31:29;23.52;;;16.10;;
21519;SDS011;10921;53.614;9.882;2023-02-28T05:33:56;27.00;;;16.75;;
21519;SDS011;10921;53.614;9.882;2023-02-28T05:36:23;26.40;;;17.70;;
21519;SDS011;10921;53.614;9.882;2023-02-28T05:38:50;26.73;;;17.75;;
21519;SDS011;10921;53.614;9.882;2023-02-28T05:41:17;37.08;;;17.67;;
21519;SDS011;10921;53.614;9.882;2023-02-28T05:43:46;31.05;;;18.73;;
21519;SDS011;10921;53.614;9.882;2023-02-28T05:46:13;40.47;;;19.75;;
21519;SDS011;10921;53.614;9.882;2023-02-28T05:48:40;43.78;;;20.73;;
21519;SDS011;10921;53.614;9.882;2023-02-28T05:51:08;33.72;;;20.20;;
21519;SDS011;10921;53.614;9.882;2023-02-28T05:53:35;35.35;;;19.58;;
21519;SDS011;10921;53.614;9.882;2023-02-28T05:56:02;36.85;;;19.70;;
21519;SDS011;10921;53.614;9.882;2023-02-28T05:58:29;35.58;;;18.73;;
21519;SDS011;10921;53.614;9.882;2023-02-28T06:00:58;45.97;;;20.80;;
21519;SDS011;10921;53.614;9.882;2023-02-28T06:03:25;34.38;;;19.58;;
21519;SDS011;10921;53.614;9.882;2023-02-28T06:05:52;31.85;;;19.63;;
21519;SDS011;10921;53.614;9.882;2023-02-28T06:08:19;31.40;;;19.67;;
21519;SDS011;10921;53.614;9.882;2023-02-28T06:10:46;35.35;;;20.92;;
21519;SDS011;10921;53.614;9.882;2023-02-28T06:13:12;34.63;;;20.08;;
21519;SDS011;10921;53.614;9.882;2023-02-28T06:15:39;39.65;;;20.90;;
21519;SDS011;10921;53.614;9.882;2023-02-28T06:18:05;36.80;;;22.30;;
21519;SDS011;10921;53.614;9.882;2023-02-28T06:20:33;38.78;;;21.13;;
21519;SDS011;10921;53.614;9.882;2023-02-28T06:23:00;39.28;;;20.20;;
21519;SDS011;10921;53.614;9.882;2023-02-28T06:25:27;36.05;;;20.98;;
21519;SDS011;10921;53.614;9.882;2023-02-28T06:27:54;36.85;;;21.73;;
21519;SDS011;10921;53.614;9.882;2023-02-28T06:30:21;42.72;;;21.98;;
21519;SDS011;10921;53.614;9.882;2023-02-28T06:32:51;35.28;;;20.30;;
21519;SDS011;10921;53.614;9.882;2023-02-28T06:35:18;36.88;;;20.75;;
21519;SDS011;10921;53.614;9.882;2023-02-28T06:37:44;33.15;;;20.67;;
21519;SDS011;10921;53.614;9.882;2023-02-28T06:40:11;37.92;;;21.45;;
21519;SDS011;10921;53.614;9.882;2023-02-28T06:42:39;37.47;;;21.42;;
21519;SDS011;10921;53.614;9.882;2023-02-28T06:45:05;34.67;;;20.70;;
21519;SDS011;10921;53.614;9.882;2023-02-28T06:47:36;31.77;;;20.27;;
21519;SDS011;10921;53.614;9.882;2023-02-28T06:50:04;25.88;;;20.45;;
21519;SDS011;10921;53.614;9.882;2023-02-28T06:52:31;35.25;;;19.48;;
21519;SDS011;10921;53.614;9.882;2023-02-28T06:54:58;30.45;;;19.10;;
21519;SDS011;10921;53.614;9.882;2023-02-28T06:57:29;25.42;;;17.65;;
21519;SDS011;10921;53.614;9.882;2023-02-28T07:00:00;25.20;;;17.85;;
21519;SDS011;10921;53.614;9.882;2023-02-28T07:02:27;31.55;;;18.48;;
21519;SDS011;10921;53.614;9.882;2023-02-28T07:04:54;31.92;;;20.35;;
21519;SDS011;10921;53.614;9.882;2023-02-28T07:07:21;27.58;;;19.48;;
21519;SDS011;10921;53.614;9.882;2023-02-28T07:09:47;24.70;;;18.80;;
21519;SDS011;10921;53.614;9.882;2023-02-28T07:12:13;21.83;;;18.13;;
21519;SDS011;10921;53.614;9.882;2023-02-28T07:14:40;21.13;;;16.83;;
21519;SDS011;10921;53.614;9.882;2023-02-28T07:17:07;21.35;;;16.08;;
21519;SDS011;10921;53.614;9.882;2023-02-28T07:19:35;18.55;;;16.58;;
21519;SDS011;10921;53.614;9.882;2023-02-28T07:22:01;27.50;;;16.45;;
21519;SDS011;10921;53.614;9.882;2023-02-28T07:24:29;18.23;;;16.30;;
21519;SDS011;10921;53.614;9.882;2023-02-28T07:26:55;19.50;;;15.73;;
21519;SDS011;10921;53.614;9.882;2023-02-28T07:29:22;23.38;;;16.80;;
21519;SDS011;10921;53.614;9.882;2023-02-28T07:31:49;18.88;;;16.52;;
21519;SDS011;10921;53.614;9.882;2023-02-28T07:36:46;21.52;;;16.40;;
21519;SDS011;10921;53.614;9.882;2023-02-28T07:39:12;25.50;;;17.65;;
21519;SDS011;10921;53.614;9.882;2023-02-28T07:41:39;21.25;;;16.83;;
21519;SDS011;10921;53.614;9.882;2023-02-28T07:44:10;20.00;;;17.40;;
21519;SDS011;10921;53.614;9.882;2023-02-28T07:46:37;27.95;;;20.75;;
21519;SDS011;10921;53.614;9.882;2023-02-28T07:49:04;23.00;;;18.48;;
21519;SDS011;10921;53.614;9.882;2023-02-28T07:51:30;21.15;;;16.63;;
21519;SDS011;10921;53.614;9.882;2023-02-28T07:53:57;25.25;;;16.63;;
21519;SDS011;10921;53.614;9.882;2023-02-28T07:56:24;16.23;;;14.38;;
21519;SDS011;10921;53.614;9.882;2023-02-28T07:58:50;18.15;;;14.70;;
21519;SDS011;10921;53.614;9.882;2023-02-28T08:01:17;28.15;;;17.15;;
21519;SDS011;10921;53.614;9.882;2023-02-28T08:03:45;30.50;;;17.90;;
21519;SDS011;10921;53.614;9.882;2023-02-28T08:06:16;32.15;;;16.50;;
21519;SDS011;10921;53.614;9.882;2023-02-28T08:08:44;26.40;;;16.67;;
21519;SDS011;10921;53.614;9.882;2023-02-28T08:11:11;34.03;;;19.13;;
21519;SDS011;10921;53.614;9.882;2023-02-28T08:13:37;26.40;;;16.20;;
21519;SDS011;10921;53.614;9.882;2023-02-28T08:16:04;22.75;;;14.55;;
21519;SDS011;10921;53.614;9.882;2023-02-28T08:18:31;17.50;;;13.95;;
21519;SDS011;10921;53.614;9.882;2023-02-28T08:20:58;15.15;;;12.25;;
21519;SDS011;10921;53.614;9.882;2023-02-28T08:23:25;17.00;;;13.00;;
21519;SDS011;10921;53.614;9.882;2023-02-28T08:25:55;27.23;;;15.90;;
21519;SDS011;10921;53.614;9.882;2023-02-28T08:28:22;17.02;;;12.93;;
21519;SDS011;10921;53.614;9.882;2023-02-28T08:30:52;26.33;;;16.27;;
21519;SDS011;10921;53.614;9.882;2023-02-28T08:33:18;15.75;;;12.75;;
21519;SDS011;10921;53.614;9.882;2023-02-28T08:35:45;13.82;;;11.98;;
21519;SDS011;10921;53.614;9.882;2023-02-28T08:38:12;13.93;;;11.60;;
21519;SDS011;10921;53.614;9.882;2023-02-28T08:40:41;12.63;;;11.45;;
21519;SDS011;10921;53.614;9.882;2023-02-28T08:43:08;13.23;;;11.02;;
21519;SDS011;10921;53.614;9.882;2023-02-28T08:45:35;12.40;;;11.25;;
21519;SDS011;10921;53.614;9.882;2023-02-28T08:48:02;13.02;;;11.93;;
21519;SDS011;10921;53.614;9.882;2023-02-28T08:50:29;15.10;;;12.75;;
21519;SDS011;10921;53.614;9.882;2023-02-28T08:52:55;14.50;;;13.25;;
21519;SDS011;10921;53.614;9.882;2023-02-28T08:55:21;14.48;;;13.27;;
21519;SDS011;10921;53.614;9.882;2023-02-28T08:57:48;11.57;;;10.65;;
21519;SDS011;10921;53.614;9.882;2023-02-28T09:00:14;12.15;;;10.95;;
21519;SDS011;10921;53.614;9.882;2023-02-28T09:02:41;13.30;;;12.20;;
21519;SDS011;10921;53.614;9.882;2023-02-28T09:05:09;10.48;;;9.68;;
21519;SDS011;10921;53.614;9.882;2023-02-28T09:07:36;12.77;;;11.80;;
21519;SDS011;10921;53.614;9.882;2023-02-28T09:10:02;12.07;;;11.18;;
21519;SDS011;10921;53.614;9.882;2023-02-28T09:12:31;12.55;;;11.25;;
21519;SDS011;10921;53.614;9.882;2023-02-28T09:15:00;12.50;;;11.60;;
21519;SDS011;10921;53.614;9.882;2023-02-28T09:17:27;10.63;;;9.82;;
21519;SDS011;10921;53.614;9.882;2023-02-28T09:19:56;11.02;;;9.95;;
21519;SDS011;10921;53.614;9.882;2023-02-28T09:22:23;10.75;;;9.85;;
21519;SDS011;10921;53.614;9.882;2023-02-28T09:24:49;11.57;;;10.48;;
21519;SDS011;10921;53.614;9.882;2023-02-28T09:27:16;11.20;;;10.13;;
21519;SDS011;10921;53.614;9.882;2023-02-28T09:29:42;11.77;;;10.75;;
21519;SDS011;10921;53.614;9.882;2023-02-28T09:32:09;14.13;;;10.60;;
21519;SDS011;10921;53.614;9.882;2023-02-28T09:34:35;10.95;;;10.15;;
21519;SDS011;10921;53.614;9.882;2023-02-28T09:37:03;10.75;;;9.95;;
21519;SDS011;10921;53.614;9.882;2023-02-28T09:39:29;11.45;;;10.45;;
21519;SDS011;10921;53.614;9.882;2023-02-28T09:41:57;11.38;;;10.35;;
21519;SDS011;10921;53.614;9.882;2023-02-28T09:44:35;12.80;;;11.70;;
21519;SDS011;10921;53.614;9.882;2023-02-28T09:47:48;13.05;;;12.05;;
21519;SDS011;10921;53.614;9.882;2023-02-28T09:49:55;12.60;;;11.50;;
21519;SDS011;10921;53.614;9.882;2023-02-28T09:52:28;12.80;;;11.80;;
21519;SDS011;10921;53.614;9.882;2023-02-28T09:54:59;13.90;;;12.45;;
21519;SDS011;10921;53.614;9.882;2023-02-28T09:57:38;11.43;;;10.43;;
21519;SDS011;10921;53.614;9.882;2023-02-28T10:00:14;13.50;;;12.40;;
21519;SDS011;10921;53.614;9.882;2023-02-28T10:03:06;13.50;;;12.13;;
21519;SDS011;10921;53.614;9.882;2023-02-28T10:09:08;12.93;;;11.93;;
21519;SDS011;10921;53.614;9.882;2023-02-28T10:11:40;13.10;;;12.00;;
21519;SDS011;10921;53.614;9.882;2023-02-28T10:16:41;12.52;;;11.60;;
21519;SDS011;10921;53.614;9.882;2023-02-28T10:19:21;12.75;;;11.68;;
21519;SDS011;10921;53.614;9.882;2023-02-28T10:21:54;13.35;;;12.02;;
21519;SDS011;10921;53.614;9.882;2023-02-28T10:26:56;12.70;;;11.48;;
21519;SDS011;10921;53.614;9.882;2023-02-28T10:29:28;12.50;;;11.60;;
21519;SDS011;10921;53.614;9.882;2023-02-28T10:31:58;12.55;;;11.73;;
21519;SDS011;10921;53.614;9.882;2023-02-28T10:34:34;13.30;;;12.00;;
21519;SDS011;10921;53.614;9.882;2023-02-28T10:37:00;13.38;;;12.27;;
21519;SDS011;10921;53.614;9.882;2023-02-28T10:39:45;12.98;;;11.80;;
21519;SDS011;10921;53.614;9.882;2023-02-28T10:42:26;13.35;;;12.00;;
21519;SDS011;10921;53.614;9.882;2023-02-28T10:47:55;13.40;;;12.25;;
21519;SDS011;10921;53.614;9.882;2023-02-28T10:52:53;12.93;;;11.75;;
21519;SDS011;10921;53.614;9.882;2023-02-28T10:55:22;14.07;;;12.65;;
21519;SDS011;10921;53.614;9.882;2023-02-28T10:57:51;13.07;;;11.95;;
21519;SDS011;10921;53.614;9.882;2023-02-28T11:00:19;12.73;;;11.68;;
21519;SDS011;10921;53.614;9.882;2023-02-28T11:02:48;12.88;;;11.75;;
21519;SDS011;10921;53.614;9.882;2023-02-28T11:07:57;12.30;;;11.40;;
21519;SDS011;10921;53.614;9.882;2023-02-28T11:10:31;12.73;;;11.70;;
21519;SDS011;10921;53.614;9.882;2023-02-28T11:15:28;11.52;;;10.52;;
21519;SDS011;10921;53.614;9.882;2023-02-28T11:18:06;11.32;;;10.30;;
21519;SDS011;10921;53.614;9.882;2023-02-28T11:20:52;12.60;;;11.55;;
21519;SDS011;10921;53.614;9.882;2023-02-28T11:23:23;12.88;;;11.77;;
21519;SDS011;10921;53.614;9.882;2023-02-28T11:25:54;12.10;;;11.02;;
21519;SDS011;10921;53.614;9.882;2023-02-28T11:28:26;12.40;;;11.50;;
21519;SDS011;10921;53.614;9.882;2023-02-28T11:31:08;12.63;;;11.55;;
21519;SDS011;10921;53.614;9.882;2023-02-28T11:33:54;13.15;;;12.02;;
21519;SDS011;10921;53.614;9.882;2023-02-28T11:36:23;11.63;;;10.73;;
21519;SDS011;10921;53.614;9.882;2023-02-28T11:38:55;12.23;;;11.02;;
21519;SDS011;10921;53.614;9.882;2023-02-28T11:46:54;12.23;;;11.00;;
21519;SDS011;10921;53.614;9.882;2023-02-28T11:55:19;12.73;;;11.82;;
21519;SDS011;10921;53.614;9.882;2023-02-28T12:05:47;13.20;;;11.98;;
21519;SDS011;10921;53.614;9.882;2023-02-28T12:11:19;12.10;;;11.20;;
21519;SDS011;10921;53.614;9.882;2023-02-28T12:17:01;11.48;;;10.65;;
21519;SDS011;10921;53.614;9.882;2023-02-28T12:27:33;11.00;;;10.20;;
21519;SDS011;10921;53.614;9.882;2023-02-28T12:30:08;12.48;;;11.57;;
21519;SDS011;10921;53.614;9.882;2023-02-28T12:32:52;12.98;;;11.85;;
21519;SDS011;10921;53.614;9.882;2023-02-28T12:35:25;10.90;;;10.00;;
21519;SDS011;10921;53.614;9.882;2023-02-28T12:38:02;12.43;;;11.43;;
21519;SDS011;10921;53.614;9.882;2023-02-28T12:41:00;12.00;;;10.80;;
21519;SDS011;10921;53.614;9.882;2023-02-28T12:43:36;11.25;;;10.45;;
21519;SDS011;10921;53.614;9.882;2023-02-28T12:46:18;11.77;;;10.77;;
21519;SDS011;10921;53.614;9.882;2023-02-28T12:48:51;12.10;;;11.00;;
21519;SDS011;10921;53.614;9.882;2023-02-28T12:51:22;12.48;;;11.40;;
21519;SDS011;10921;53.614;9.882;2023-02-28T12:53:56;12.30;;;11.18;;
21519;SDS011;10921;53.614;9.882;2023-02-28T12:59:12;11.75;;;10.57;;
21519;SDS011;10921;53.614;9.882;2023-02-28T13:01:47;11.50;;;10.60;;
21519;SDS011;10921;53.614;9.882;2023-02-28T13:04:46;11.38;;;10.30;;
21519;SDS011;10921;53.614;9.882;2023-02-28T13:10:37;12.85;;;11.75;;
21519;SDS011;10921;53.614;9.882;2023-02-28T13:13:16;12.27;;;11.27;;
21519;SDS011;10921;53.614;9.882;2023-02-28T13:16:06;12.70;;;11.50;;
21519;SDS011;10921;53.614;9.882;2023-02-28T13:18:35;12.65;;;11.70;;
21519;SDS011;10921;53.614;9.882;2023-02-28T13:21:08;13.05;;;11.30;;
21519;SDS011;10921;53.614;9.882;2023-02-28T13:23:58;12.35;;;11.38;;
21519;SDS011;10921;53.614;9.882;2023-02-28T13:34:32;12.35;;;11.13;;
21519;SDS011;10921;53.614;9.882;2023-02-28T13:39:57;12.40;;;11.30;;
21519;SDS011;10921;53.614;9.882;2023-02-28T13:42:36;12.50;;;11.30;;
21519;SDS011;10921;53.614;9.882;2023-02-28T13:47:40;12.75;;;11.70;;
21519;SDS011;10921;53.614;9.882;2023-02-28T13:50:22;12.57;;;11.57;;
21519;SDS011;10921;53.614;9.882;2023-02-28T14:07:08;13.07;;;12.18;;
21519;SDS011;10921;53.614;9.882;2023-02-28T14:09:45;13.02;;;11.93;;
21519;SDS011;10921;53.614;9.882;2023-02-28T14:17:54;12.90;;;11.82;;
21519;SDS011;10921;53.614;9.882;2023-02-28T14:20:22;12.95;;;11.80;;
21519;SDS011;10921;53.614;9.882;2023-02-28T14:23:11;12.73;;;11.82;;
21519;SDS011;10921;53.614;9.882;2023-02-28T14:25:48;13.13;;;12.00;;
21519;SDS011;10921;53.614;9.882;2023-02-28T14:28:22;13.70;;;12.50;;
21519;SDS011;10921;53.614;9.882;2023-02-28T14:31:00;13.80;;;12.40;;
21519;SDS011;10921;53.614;9.882;2023-02-28T14:36:16;13.17;;;11.70;;
21519;SDS011;10921;53.614;9.882;2023-02-28T14:38:52;13.05;;;11.70;;
21519;SDS011;10921;53.614;9.882;2023-02-28T14:41:33;11.88;;;10.93;;
21519;SDS011;10921;53.614;9.882;2023-02-28T14:46:44;14.35;;;11.18;;
21519;SDS011;10921;53.614;9.882;2023-02-28T14:49:13;12.70;;;11.68;;
21519;SDS011;10921;53.614;9.882;2023-02-28T14:51:44;12.73;;;11.73;;
21519;SDS011;10921;53.614;9.882;2023-02-28T14:54:14;12.68;;;11.68;;
21519;SDS011;10921;53.614;9.882;2023-02-28T14:56:42;13.13;;;11.90;;
21519;SDS011;10921;53.614;9.882;2023-02-28T14:59:42;12.43;;;11.38;;
21519;SDS011;10921;53.614;9.882;2023-02-28T15:02:15;12.68;;;11.60;;
21519;SDS011;10921;53.614;9.882;2023-02-28T15:04:42;14.38;;;12.57;;
21519;SDS011;10921;53.614;9.882;2023-02-28T15:07:15;11.63;;;10.50;;
21519;SDS011;10921;53.614;9.882;2023-02-28T15:09:41;11.32;;;10.43;;
21519;SDS011;10921;53.614;9.882;2023-02-28T15:12:09;11.52;;;10.63;;
21519;SDS011;10921;53.614;9.882;2023-02-28T15:14:42;12.25;;;11.15;;
21519;SDS011;10921;53.614;9.882;2023-02-28T15:17:14;11.48;;;10.68;;
21519;SDS011;10921;53.614;9.882;2023-02-28T15:19:50;12.27;;;11.15;;
21519;SDS011;10921;53.614;9.882;2023-02-28T15:22:21;12.93;;;11.68;;
21519;SDS011;10921;53.614;9.882;2023-02-28T15:25:01;12.02;;;10.90;;
21519;SDS011;10921;53.614;9.882;2023-02-28T15:27:31;12.27;;;11.00;;
21519;SDS011;10921;53.614;9.882;2023-02-28T15:30:00;12.05;;;10.95;;
21519;SDS011;10921;53.614;9.882;2023-02-28T15:32:40;11.57;;;10.63;;
21519;SDS011;10921;53.614;9.882;2023-02-28T15:35:18;12.38;;;11.27;;
21519;SDS011;10921;53.614;9.882;2023-02-28T15:37:48;13.23;;;11.83;;
21519;SDS011;10921;53.614;9.882;2023-02-28T15:40:23;12.15;;;11.10;;
21519;SDS011;10921;53.614;9.882;2023-02-28T15:42:58;12.55;;;11.40;;
21519;SDS011;10921;53.614;9.882;2023-02-28T15:45:34;12.63;;;11.23;;
21519;SDS011;10921;53.614;9.882;2023-02-28T15:48:31;11.85;;;10.88;;
21519;SDS011;10921;53.614;9.882;2023-02-28T15:51:08;12.07;;;11.18;;
21519;SDS011;10921;53.614;9.882;2023-02-28T15:53:50;12.52;;;11.43;;
21519;SDS011;10921;53.614;9.882;2023-02-28T15:56:22;12.50;;;11.50;;
21519;SDS011;10921;53.614;9.882;2023-02-28T15:58:55;12.45;;;11.55;;
21519;SDS011;10921;53.614;9.882;2023-02-28T16:01:47;13.32;;;12.15;;
21519;SDS011;10921;53.614;9.882;2023-02-28T16:04:15;12.82;;;11.70;;
21519;SDS011;10921;53.614;9.882;2023-02-28T16:06:44;13.57;;;12.27;;
21519;SDS011;10921;53.614;9.882;2023-02-28T16:09:31;13.02;;;11.93;;
21519;SDS011;10921;53.614;9.882;2023-02-28T16:12:00;13.55;;;12.20;;
21519;SDS011;10921;53.614;9.882;2023-02-28T16:14:28;13.38;;;11.90;;
21519;SDS011;10921;53.614;9.882;2023-02-28T16:17:01;13.65;;;12.32;;
21519;SDS011;10921;53.614;9.882;2023-02-28T16:19:30;13.75;;;12.43;;
21519;SDS011;10921;53.614;9.882;2023-02-28T16:22:00;13.70;;;12.48;;
21519;SDS011;10921;53.614;9.882;2023-02-28T16:24:27;15.80;;;12.55;;
21519;SDS011;10921;53.614;9.882;2023-02-28T16:26:54;13.18;;;12.00;;
21519;SDS011;10921;53.614;9.882;2023-02-28T16:29:24;14.23;;;12.85;;
21519;SDS011;10921;53.614;9.882;2023-02-28T16:31:53;17.80;;;13.05;;
21519;SDS011;10921;53.614;9.882;2023-02-28T16:34:20;14.65;;;12.73;;
21519;SDS011;10921;53.614;9.882;2023-02-28T16:36:47;17.42;;;13.48;;
21519;SDS011;10921;53.614;9.882;2023-02-28T16:39:14;14.13;;;12.73;;
21519;SDS011;10921;53.614;9.882;2023-02-28T16:41:44;14.27;;;12.98;;
21519;SDS011;10921;53.614;9.882;2023-02-28T16:47:00;14.73;;;13.27;;
21519;SDS011;10921;53.614;9.882;2023-02-28T16:49:28;21.92;;;18.20;;
21519;SDS011;10921;53.614;9.882;2023-02-28T16:51:55;25.33;;;16.92;;
21519;SDS011;10921;53.614;9.882;2023-02-28T16:54:21;19.65;;;15.85;;
21519;SDS011;10921;53.614;9.882;2023-02-28T16:56:48;15.13;;;13.57;;
21519;SDS011;10921;53.614;9.882;2023-02-28T16:59:17;14.40;;;13.02;;
21519;SDS011;10921;53.614;9.882;2023-02-28T17:01:47;16.83;;;13.20;;
21519;SDS011;10921;53.614;9.882;2023-02-28T17:04:14;14.93;;;13.18;;
21519;SDS011;10921;53.614;9.882;2023-02-28T17:06:41;14.57;;;13.18;;
21519;SDS011;10921;53.614;9.882;2023-02-28T17:09:10;14.38;;;12.88;;
21519;SDS011;10921;53.614;9.882;2023-02-28T17:11:42;13.48;;;12.27;;
21519;SDS011;10921;53.614;9.882;2023-02-28T17:14:08;12.88;;;11.57;;